Time;durP1;ratioP1;P1;durP2;ratioP2;P2;SDS_P1;SDS_P2;PMS_P1;PMS_P2;Temp;Humidity;BMP_temperature;BMP_pressure;BME280_temperature;BME280_humidity;BME280_pressure;Samples;Min_cycle;Max_cycle;Signal;HPM_P1;HPM_P2
2021/12/24 00:00:32;;;;;;;9.77;5.30;;;19.50;51.80;;;;;;4913360;28;86666;-78
2021/12/24 00:02:58;;;;;;;9.05;5.25;;;19.40;51.70;;;;;;4913118;28;86726;-79
2021/12/24 00:05:24;;;;;;;8.07;5.35;;;19.40;51.80;;;;;;4912737;28;85765;-76
2021/12/24 00:07:49;;;;;;;6.97;5.28;;;19.40;51.90;;;;;;4913180;28;86005;-79
2021/12/24 00:10:15;;;;;;;8.07;5.53;;;19.40;51.90;;;;;;4913162;28;86540;-79
2021/12/24 00:12:47;;;;;;;8.18;5.22;;;19.40;51.90;;;;;;4914490;28;89141;-78
2021/12/24 00:18:06;;;;;;;8.07;5.70;;;19.40;51.90;;;;;;4913023;28;86095;-79
2021/12/24 00:22:09;;;;;;;6.82;4.90;;;19.40;51.80;;;;;;4913048;28;86909;-77
2021/12/24 00:37:00;;;;;;;7.60;5.20;;;19.30;52.00;;;;;;4912058;28;85919;-78
2021/12/24 00:39:26;;;;;;;8.13;5.35;;;19.30;52.10;;;;;;4915295;28;86016;-78
2021/12/24 00:41:52;;;;;;;6.57;4.88;;;19.30;52.00;;;;;;4912633;28;85901;-77
2021/12/24 00:44:17;;;;;;;9.90;5.25;;;19.30;52.20;;;;;;4912678;28;86392;-78
2021/12/24 00:46:43;;;;;;;7.78;5.47;;;19.30;52.30;;;;;;4911957;28;86169;-78
2021/12/24 00:49:09;;;;;;;7.35;4.80;;;19.30;52.30;;;;;;4912089;28;86614;-78
2021/12/24 00:57:03;;;;;;;8.68;5.10;;;19.30;52.30;;;;;;4911958;28;86396;-78
2021/12/24 00:59:29;;;;;;;6.53;4.57;;;19.30;52.30;;;;;;4912076;28;87015;-78
2021/12/24 01:01:55;;;;;;;7.57;4.57;;;19.30;52.40;;;;;;4912687;28;86540;-78
2021/12/24 01:04:21;;;;;;;7.72;4.85;;;19.30;52.60;;;;;;4915129;28;90072;-77
2021/12/24 01:06:47;;;;;;;8.65;4.75;;;19.30;52.50;;;;;;4926810;28;86666;-77
2021/12/24 01:09:13;;;;;;;7.63;4.85;;;19.30;52.50;;;;;;4912514;28;86236;-77
2021/12/24 01:11:38;;;;;;;7.88;4.97;;;19.20;52.40;;;;;;4911440;28;85608;-77
2021/12/24 01:14:04;;;;;;;6.82;4.35;;;19.20;52.60;;;;;;4910889;28;86432;-76
2021/12/24 01:16:38;;;;;;;9.77;5.30;;;19.30;52.60;;;;;;4912151;28;86254;-78
2021/12/24 01:19:15;;;;;;;7.97;4.63;;;19.20;52.60;;;;;;4912633;28;86322;-78
2021/12/24 01:24:29;;;;;;;6.32;4.38;;;19.20;52.60;;;;;;4915764;28;86637;-79
2021/12/24 01:42:45;;;;;;;7.10;4.63;;;19.20;52.70;;;;;;4914944;28;86745;-76
2021/12/24 01:45:34;;;;;;;7.22;4.50;;;19.20;52.60;;;;;;4914813;28;86187;-78
2021/12/24 01:48:11;;;;;;;6.20;4.40;;;19.20;52.60;;;;;;4914593;28;86904;-78
2021/12/24 01:50:38;;;;;;;8.93;4.97;;;19.20;52.60;;;;;;4929217;28;86392;-77
2021/12/24 01:53:06;;;;;;;6.43;4.40;;;19.20;52.60;;;;;;4914248;28;86256;-77
2021/12/24 01:55:32;;;;;;;6.50;4.53;;;19.10;52.60;;;;;;4915042;28;86947;-78
2021/12/24 01:57:58;;;;;;;7.03;4.35;;;19.20;52.60;;;;;;4915629;28;90168;-78
2021/12/24 02:00:31;;;;;;;6.68;4.90;;;19.10;52.40;;;;;;4914664;28;85769;-76
2021/12/24 02:02:58;;;;;;;8.85;4.60;;;19.20;53.10;;;;;;4913517;28;86952;-77
2021/12/24 02:05:24;;;;;;;8.02;4.63;;;19.20;52.50;;;;;;4914007;28;86937;-76
2021/12/24 02:07:51;;;;;;;8.25;4.70;;;19.10;52.50;;;;;;4914626;28;86710;-77
2021/12/24 02:10:19;;;;;;;7.57;4.93;;;19.10;52.60;;;;;;4914394;28;85816;-79
2021/12/24 02:12:46;;;;;;;6.45;4.40;;;19.10;52.50;;;;;;4913179;28;86034;-78
2021/12/24 02:15:24;;;;;;;5.72;4.45;;;19.10;52.60;;;;;;4913874;28;86321;-77
2021/12/24 02:18:23;;;;;;;5.68;4.25;;;19.10;52.60;;;;;;4914863;28;86306;-78
2021/12/24 02:29:05;;;;;;;6.03;4.13;;;19.10;52.60;;;;;;4914233;28;86517;-77
2021/12/24 02:31:31;;;;;;;7.55;4.90;;;19.10;52.50;;;;;;4919816;28;86782;-79
2021/12/24 02:33:57;;;;;;;7.05;4.47;;;19.10;52.40;;;;;;4914786;28;86112;-79
2021/12/24 02:36:22;;;;;;;5.60;4.20;;;19.00;52.50;;;;;;4914348;28;86393;-76
2021/12/24 02:38:49;;;;;;;6.05;4.50;;;19.10;53.10;;;;;;4911913;28;88296;-77
2021/12/24 02:41:16;;;;;;;7.68;4.53;;;19.10;52.60;;;;;;4913823;28;85797;-77
2021/12/24 02:43:42;;;;;;;7.15;4.43;;;19.00;52.60;;;;;;4914803;28;86372;-78
2021/12/24 02:46:13;;;;;;;8.95;4.57;;;19.10;52.60;;;;;;4914255;28;87068;-78
2021/12/24 02:54:07;;;;;;;8.48;4.60;;;19.00;52.60;;;;;;4914361;28;87294;-78
2021/12/24 02:56:37;;;;;;;6.63;4.45;;;19.00;52.50;;;;;;4913104;28;86240;-78
2021/12/24 02:59:11;;;;;;;6.25;4.60;;;19.00;52.60;;;;;;4912685;28;87200;-78
2021/12/24 03:01:40;;;;;;;5.68;4.25;;;19.10;52.50;;;;;;4913468;28;86180;-79
2021/12/24 03:04:06;;;;;;;6.13;4.50;;;19.00;52.40;;;;;;4912549;28;86393;-79
2021/12/24 03:06:39;;;;;;;5.97;4.03;;;19.00;52.50;;;;;;4913182;28;86189;-79
2021/12/24 03:09:09;;;;;;;7.43;4.78;;;19.00;52.50;;;;;;4913105;28;86649;-77
2021/12/24 03:11:35;;;;;;;;;;;19.00;52.50;;;;;;4928167;28;86526;-79
2021/12/24 03:14:02;;;;;;;5.78;4.25;;;19.00;52.50;;;;;;4914335;28;86173;-79
2021/12/24 03:16:28;;;;;;;5.60;4.30;;;19.10;52.60;;;;;;4913417;28;86017;-78
2021/12/24 03:18:54;;;;;;;4.63;3.80;;;19.00;52.50;;;;;;4913810;28;86242;-78
2021/12/24 03:21:32;;;;;;;7.80;4.45;;;19.00;52.60;;;;;;4913366;28;86228;-78
2021/12/24 03:26:38;;;;;;;5.85;4.22;;;19.00;52.60;;;;;;4912724;28;87597;-78
2021/12/24 03:29:07;;;;;;;6.68;4.57;;;19.00;52.60;;;;;;4911729;28;85860;-78
2021/12/24 03:31:34;;;;;;;6.10;4.18;;;19.00;53.20;;;;;;4913868;28;86877;-77
2021/12/24 03:34:01;;;;;;;6.97;4.35;;;19.00;52.60;;;;;;4911869;28;86145;-78
2021/12/24 03:36:27;;;;;;;6.93;4.50;;;19.00;52.70;;;;;;4913448;28;86905;-78
2021/12/24 03:38:54;;;;;;;7.38;4.53;;;19.00;52.80;;;;;;4913535;28;86574;-78
2021/12/24 03:41:21;;;;;;;5.80;4.15;;;19.00;52.80;;;;;;4921158;28;86277;-79
2021/12/24 03:43:47;;;;;;;5.63;3.97;;;19.00;52.80;;;;;;4912302;28;86031;-77
2021/12/24 03:46:18;;;;;;;6.53;4.20;;;19.00;52.80;;;;;;4912095;28;85683;-78
2021/12/24 03:56:31;;;;;;;6.40;4.88;;;19.00;52.80;;;;;;4913309;28;86120;-78
2021/12/24 03:58:57;;;;;;;5.82;4.38;;;18.90;52.90;;;;;;4911986;28;89417;-79
2021/12/24 04:01:24;;;;;;;6.53;4.40;;;18.90;52.90;;;;;;4913339;28;87687;-78
2021/12/24 04:03:50;;;;;;;5.20;4.13;;;18.90;52.80;;;;;;4953987;22;86632;-80
2021/12/24 04:06:16;;;;;;;5.65;3.90;;;18.90;52.60;;;;;;4932361;28;86089;-79
2021/12/24 04:08:42;;;;;;;5.18;4.25;;;18.90;53.60;;;;;;4932380;28;86551;-79
2021/12/24 04:11:08;;;;;;;8.15;4.47;;;18.90;53.60;;;;;;4933079;28;86697;-79
2021/12/24 04:13:34;;;;;;;7.95;4.30;;;18.90;53.00;;;;;;4932275;28;86045;-77
2021/12/24 04:16:00;;;;;;;5.35;4.00;;;18.90;53.00;;;;;;4930372;28;86780;-80
2021/12/24 04:26:24;;;;;;;6.15;4.10;;;18.90;53.00;;;;;;4932396;28;86958;-80
2021/12/24 04:28:50;;;;;;;5.28;3.97;;;18.90;53.10;;;;;;4931398;28;86619;-79
2021/12/24 04:31:18;;;;;;;6.88;4.45;;;18.90;53.20;;;;;;4932586;28;86300;-76
2021/12/24 04:33:47;;;;;;;5.15;3.83;;;18.90;53.10;;;;;;4932431;28;85844;-78
2021/12/24 05:03:11;;;;;;;5.90;4.00;;;18.80;53.70;;;;;;4934580;28;86151;-80
2021/12/24 05:05:51;;;;;;;5.93;3.80;;;18.80;54.30;;;;;;4934800;28;86352;-80
2021/12/24 05:10:43;;;;;;;5.57;4.18;;;18.80;53.80;;;;;;4934812;28;86559;-80
2021/12/24 05:13:10;;;;;;;5.25;3.80;;;18.80;53.70;;;;;;4935615;28;86700;-80
2021/12/24 05:15:38;;;;;;;6.38;3.78;;;18.80;53.80;;;;;;4935392;28;86110;-81
2021/12/24 05:18:27;;;;;;;5.72;3.92;;;18.80;53.80;;;;;;4935684;28;86242;-79
2021/12/24 05:23:37;;;;;;;4.18;3.30;;;18.80;53.80;;;;;;4936064;28;86635;-76
2021/12/24 05:26:04;;;;;;;5.07;3.58;;;18.80;53.90;;;;;;4935764;28;86443;-80
2021/12/24 05:28:29;;;;;;;5.90;3.70;;;18.80;53.80;;;;;;4935209;28;86827;-78
2021/12/24 05:30:55;;;;;;;4.90;3.63;;;18.80;54.00;;;;;;4935815;28;86636;-79
2021/12/24 05:33:21;;;;;;;4.32;3.42;;;18.80;54.00;;;;;;4934891;28;86050;-79
2021/12/24 05:35:47;;;;;;;5.43;3.58;;;18.70;54.10;;;;;;4935507;28;86332;-80
2021/12/24 05:38:14;;;;;;;6.00;4.32;;;18.80;54.00;;;;;;4934325;28;86382;-80
2021/12/24 05:40:40;;;;;;;5.47;4.28;;;18.80;54.00;;;;;;4934890;28;85734;-81
2021/12/24 05:43:10;;;;;;;5.95;3.70;;;18.70;54.00;;;;;;4935480;28;85809;-78
2021/12/24 05:45:36;;;;;;;6.15;3.90;;;18.80;54.20;;;;;;4936222;28;86215;-79
2021/12/24 05:48:05;;;;;;;5.47;4.18;;;18.70;54.10;;;;;;4934925;28;87721;-79
2021/12/24 05:50:31;;;;;;;;;;;18.70;54.20;;;;;;4934324;28;87472;-80
2021/12/24 05:52:56;;;;;;;5.63;3.67;;;18.70;54.20;;;;;;4936153;28;86222;-81
2021/12/24 05:55:22;;;;;;;4.40;3.50;;;18.70;54.20;;;;;;4935439;28;85817;-79
2021/12/24 05:57:48;;;;;;;5.35;3.85;;;18.80;54.20;;;;;;4934908;28;86316;-80
2021/12/24 06:00:14;;;;;;;6.82;4.03;;;18.70;54.40;;;;;;4932244;28;87954;-79
2021/12/24 06:02:40;;;;;;;5.35;3.40;;;18.70;54.30;;;;;;4933972;28;86356;-79
2021/12/24 06:05:06;;;;;;;4.68;3.30;;;18.70;54.40;;;;;;4933809;28;86705;-76
2021/12/24 06:07:32;;;;;;;6.45;4.30;;;18.70;54.20;;;;;;4933759;28;88876;-80
2021/12/24 06:09:57;;;;;;;5.90;3.95;;;18.70;54.30;;;;;;4934054;28;86931;-80
2021/12/24 06:12:23;;;;;;;4.03;3.42;;;18.70;54.60;;;;;;4933810;28;86833;-76
2021/12/24 06:14:53;;;;;;;8.18;4.28;;;18.70;54.40;;;;;;4934944;28;86732;-79
2021/12/24 06:17:22;;;;;;;5.13;3.72;;;18.70;54.50;;;;;;4933020;28;86811;-81
2021/12/24 06:19:48;;;;;;;5.38;3.58;;;18.70;55.40;;;;;;4934156;28;86313;-81
2021/12/24 06:22:13;;;;;;;5.65;3.70;;;18.70;54.90;;;;;;4934770;28;86350;-76
2021/12/24 06:24:39;;;;;;;6.47;4.20;;;18.70;54.90;;;;;;4934486;28;86724;-81
2021/12/24 06:27:05;;;;;;;7.63;4.10;;;18.70;54.90;;;;;;4934489;28;86818;-76
2021/12/24 06:29:31;;;;;;;5.15;3.38;;;18.70;55.00;;;;;;4934517;28;86475;-80
2021/12/24 06:31:57;;;;;;;5.57;3.55;;;18.70;55.70;;;;;;4932006;28;85690;-81
2021/12/24 06:34:30;;;;;;;6.13;3.70;;;18.60;55.00;;;;;;4934028;28;86447;-78
2021/12/24 06:36:56;;;;;;;5.18;3.45;;;18.60;55.10;;;;;;4933767;28;86384;-80
2021/12/24 06:39:22;;;;;;;7.68;3.83;;;18.70;55.10;;;;;;4933793;28;87049;-79
2021/12/24 06:41:47;;;;;;;5.20;3.72;;;18.60;55.00;;;;;;4933378;28;86308;-81
2021/12/24 06:44:13;;;;;;;6.80;3.80;;;18.70;55.00;;;;;;4933341;28;85689;-78
2021/12/24 06:46:40;;;;;;;6.18;3.78;;;18.70;55.00;;;;;;4934410;28;87449;-79
2021/12/24 06:49:07;;;;;;;7.00;3.33;;;18.70;55.10;;;;;;4933660;28;86772;-77
2021/12/24 06:51:33;;;;;;;7.10;3.80;;;18.70;55.10;;;;;;4933302;28;86570;-80
2021/12/24 06:53:59;;;;;;;5.95;3.58;;;18.70;55.10;;;;;;4933036;28;86823;-78
2021/12/24 06:56:25;;;;;;;8.05;4.07;;;18.70;55.20;;;;;;4932969;28;87367;-79
2021/12/24 06:58:50;;;;;;;4.85;3.65;;;18.60;55.20;;;;;;4933733;28;86291;-80
2021/12/24 07:01:16;;;;;;;4.97;3.70;;;18.60;55.20;;;;;;4933812;28;86190;-80
2021/12/24 07:03:42;;;;;;;7.47;3.58;;;18.60;55.10;;;;;;4932048;28;86533;-79
2021/12/24 07:06:08;;;;;;;6.78;4.20;;;18.60;55.20;;;;;;4932419;28;88999;-80
2021/12/24 07:08:34;;;;;;;4.63;3.75;;;18.60;55.30;;;;;;4933792;28;86611;-78
2021/12/24 07:11:00;;;;;;;7.68;4.40;;;18.60;55.30;;;;;;4934373;28;85813;-80
2021/12/24 07:13:26;;;;;;;4.45;3.67;;;18.60;55.50;;;;;;4933564;28;86659;-79
2021/12/24 07:15:52;;;;;;;4.95;3.40;;;18.60;55.60;;;;;;4934726;28;86425;-79
2021/12/24 07:18:18;;;;;;;6.35;3.65;;;18.60;55.80;;;;;;4933987;28;86658;-81
2021/12/24 07:20:44;;;;;;;8.00;3.75;;;18.60;55.80;;;;;;4932926;28;86222;-77
2021/12/24 07:23:09;;;;;;;5.88;3.90;;;18.60;56.00;;;;;;4933468;28;85693;-77
2021/12/24 07:25:35;;;;;;;7.25;3.92;;;18.70;56.00;;;;;;4933198;28;86824;-83
2021/12/24 07:28:01;;;;;;;15.95;4.15;;;18.70;56.00;;;;;;4932843;28;86688;-84
2021/12/24 07:30:28;;;;;;;10.65;3.85;;;18.90;56.00;;;;;;4933815;28;85639;-83
2021/12/24 07:32:55;;;;;;;7.45;4.00;;;19.00;55.80;;;;;;4935273;28;87092;-83
2021/12/24 07:35:20;;;;;;;6.60;4.20;;;19.10;55.50;;;;;;4933790;28;86553;-79
2021/12/24 07:37:46;;;;;;;5.72;4.30;;;19.20;55.30;;;;;;4949708;28;85879;-82
2021/12/24 07:40:16;;;;;;;10.30;4.13;;;19.40;55.20;;;;;;4934077;28;85754;-79
2021/12/24 07:42:47;;;;;;;35.65;7.60;;;19.50;54.90;;;;;;4934611;28;85674;-83
2021/12/24 07:45:14;;;;;;;19.83;6.38;;;19.60;54.50;;;;;;4934658;28;86897;-82
2021/12/24 07:47:42;;;;;;;21.05;6.50;;;19.70;54.50;;;;;;4935208;28;85997;-81
2021/12/24 07:51:55;;;;;;;18.90;6.03;;;19.80;54.30;;;;;;4934895;28;86390;-84
2021/12/24 07:53:06;;;;;;;17.20;6.28;;;19.80;54.10;;;;;;4932672;28;85715;-84
2021/12/24 07:55:32;;;;;;;48.30;10.88;;;19.90;54.20;;;;;;4933416;28;86776;-81
2021/12/24 07:57:58;;;;;;;71.00;12.07;;;20.00;54.00;;;;;;4932794;28;86727;-77
2021/12/24 08:00:26;;;;;;;81.50;13.05;;;20.10;54.20;;;;;;4932625;28;85725;-82
2021/12/24 08:02:53;;;;;;;70.22;12.70;;;20.20;54.20;;;;;;4932159;28;86890;-83
2021/12/24 08:05:21;;;;;;;62.63;14.02;;;20.20;54.20;;;;;;4933207;28;86870;-79
2021/12/24 08:07:48;;;;;;;63.40;11.67;;;20.20;53.90;;;;;;4931106;28;87422;-80
2021/12/24 08:10:13;;;;;;;52.58;13.18;;;20.10;53.80;;;;;;4935082;28;86693;-82
2021/12/24 08:12:39;;;;;;;51.15;12.40;;;20.10;53.80;;;;;;4931217;28;87073;-78
2021/12/24 08:15:06;;;;;;;56.05;12.77;;;20.20;54.00;;;;;;4931118;28;87101;-83
2021/12/24 08:17:32;;;;;;;51.53;11.95;;;20.20;53.80;;;;;;4931417;28;86259;-82
2021/12/24 08:19:58;;;;;;;52.72;13.00;;;20.20;53.60;;;;;;4932329;28;86802;-75
2021/12/24 08:22:23;;;;;;;53.00;13.30;;;20.20;53.50;;;;;;4934569;28;86212;-81
2021/12/24 08:24:49;;;;;;;49.90;12.82;;;20.20;53.60;;;;;;4935550;28;86307;-81
2021/12/24 08:27:15;;;;;;;50.97;12.65;;;20.30;53.70;;;;;;4931285;28;86523;-80
2021/12/24 08:29:40;;;;;;;46.60;11.73;;;20.20;53.70;;;;;;4928810;28;86982;-84
2021/12/24 08:32:06;;;;;;;41.40;11.70;;;20.20;53.80;;;;;;4927972;28;86963;-77
2021/12/24 08:34:33;;;;;;;48.28;12.13;;;20.30;54.00;;;;;;4933527;28;87060;-75
2021/12/24 08:36:59;;;;;;;47.63;11.90;;;20.30;53.90;;;;;;4933422;28;86373;-75
2021/12/24 08:39:25;;;;;;;37.28;11.50;;;20.30;53.70;;;;;;4932788;28;86681;-76
2021/12/24 08:41:54;;;;;;;48.08;11.07;;;20.30;53.70;;;;;;4932300;28;86194;-76
2021/12/24 08:44:22;;;;;;;39.88;11.27;;;20.30;53.70;;;;;;4932280;28;86836;-77
2021/12/24 08:46:48;;;;;;;37.90;9.93;;;20.20;53.60;;;;;;4932986;28;87010;-77
2021/12/24 08:49:13;;;;;;;42.72;10.98;;;20.30;53.70;;;;;;4934362;28;86717;-77
2021/12/24 08:51:39;;;;;;;48.28;10.70;;;20.30;53.50;;;;;;4933769;28;86174;-77
2021/12/24 08:54:05;;;;;;;39.33;11.40;;;20.30;53.40;;;;;;4933717;28;87639;-76
2021/12/24 08:56:31;;;;;;;33.47;9.68;;;20.40;53.40;;;;;;4931995;28;88393;-77
2021/12/24 08:58:57;;;;;;;34.22;10.52;;;20.40;53.30;;;;;;4935066;28;86009;-76
2021/12/24 09:01:22;;;;;;;37.03;9.68;;;20.50;53.40;;;;;;4933494;28;86041;-75
2021/12/24 09:03:48;;;;;;;31.98;11.05;;;20.50;53.10;;;;;;4933658;28;87800;-76
2021/12/24 09:06:14;;;;;;;25.33;9.65;;;20.60;53.10;;;;;;4933672;28;86599;-76
2021/12/24 09:08:44;;;;;;;31.90;10.50;;;20.60;53.00;;;;;;4935097;28;86744;-76
2021/12/24 09:11:10;;;;;;;33.63;9.65;;;20.70;52.90;;;;;;4929208;28;86325;-76
2021/12/24 09:13:36;;;;;;;28.73;9.80;;;20.80;52.80;;;;;;4932246;28;86645;-75
2021/12/24 09:16:02;;;;;;;27.92;9.48;;;20.70;52.80;;;;;;4933624;28;87355;-76
2021/12/24 09:18:28;;;;;;;31.13;9.00;;;20.70;52.50;;;;;;4933674;28;86571;-76
2021/12/24 09:20:59;;;;;;;31.35;9.48;;;20.80;52.40;;;;;;4934062;28;86049;-76
2021/12/24 09:23:25;;;;;;;25.77;8.38;;;20.80;52.40;;;;;;4934213;28;86326;-76
2021/12/24 09:25:50;;;;;;;31.92;9.10;;;20.80;52.30;;;;;;4934627;28;86214;-77
2021/12/24 09:28:16;;;;;;;31.00;10.25;;;20.80;52.20;;;;;;4934418;28;86111;-76
2021/12/24 09:30:42;;;;;;;26.60;9.60;;;20.80;52.00;;;;;;4933663;28;86439;-79
2021/12/24 09:33:08;;;;;;;33.22;9.18;;;20.80;51.90;;;;;;4933347;28;86740;-76
2021/12/24 09:35:33;;;;;;;25.45;8.77;;;20.80;52.50;;;;;;4933227;28;86847;-78
2021/12/24 09:38:00;;;;;;;27.23;8.32;;;20.80;51.90;;;;;;4933979;28;86036;-76
2021/12/24 09:40:26;;;;;;;26.65;9.02;;;20.70;51.70;;;;;;4933634;28;86240;-76
2021/12/24 09:42:52;;;;;;;23.63;8.43;;;20.70;51.80;;;;;;4932528;28;87044;-76
2021/12/24 09:45:18;;;;;;;18.80;7.78;;;20.70;51.70;;;;;;4934880;28;85851;-76
2021/12/24 09:47:44;;;;;;;20.02;7.40;;;20.70;51.80;;;;;;4933657;28;86090;-76
2021/12/24 09:50:15;;;;;;;18.73;8.10;;;20.70;51.80;;;;;;4933647;28;86220;-78
2021/12/24 10:06:24;;;;;;;34.65;10.45;;;21.00;60.40;;;;;;5009795;28;85682;-77
2021/12/24 10:09:00;;;;;;;30.70;11.30;;;20.10;58.70;;;;;;5007349;28;86736;-77
2021/12/24 10:11:29;;;;;;;36.25;10.50;;;20.10;58.70;;;;;;5022563;28;86323;-78
2021/12/24 10:14:04;;;;;;;29.95;10.50;;;20.10;58.70;;;;;;5006424;28;86983;-78
2021/12/24 10:16:30;;;;;;;36.30;11.95;;;20.10;58.80;;;;;;5007085;28;86534;-78
2021/12/24 10:18:59;;;;;;;22.85;8.90;;;20.20;58.80;;;;;;5006757;28;86181;-77
2021/12/24 10:21:28;;;;;;;31.92;10.65;;;20.20;57.90;;;;;;4991275;28;86743;-78
2021/12/24 10:24:03;;;;;;;33.10;9.98;;;20.20;58.00;;;;;;5006483;28;86997;-77
2021/12/24 10:26:34;;;;;;;30.77;10.35;;;20.20;57.70;;;;;;5006993;28;86665;-78
2021/12/24 10:29:09;;;;;;;29.83;10.30;;;20.20;58.50;;;;;;4997691;28;86572;-77
2021/12/24 10:31:43;;;;;;;26.73;9.02;;;20.20;57.90;;;;;;5006142;28;86084;-76
2021/12/24 10:34:13;;;;;;;27.77;9.43;;;20.20;58.30;;;;;;5006073;28;86702;-78
2021/12/24 10:36:58;;;;;;;29.15;10.23;;;20.30;58.00;;;;;;5006637;28;86488;-77
2021/12/24 10:39:57;;;;;;;27.42;9.20;;;20.30;57.80;;;;;;5004729;28;86363;-77
2021/12/24 10:42:32;;;;;;;28.10;9.13;;;20.20;58.10;;;;;;5001557;28;85741;-78
2021/12/24 10:45:00;;;;;;;20.73;8.00;;;20.30;58.20;;;;;;4995467;28;90297;-77
2021/12/24 10:47:36;;;;;;;24.13;9.40;;;20.30;58.40;;;;;;5007238;28;85954;-74
2021/12/24 10:55:25;;;;;;;22.23;8.88;;;20.30;58.50;;;;;;4986368;28;86850;-77
2021/12/24 10:57:52;;;;;;;24.83;8.75;;;20.40;58.50;;;;;;4980266;28;86534;-77
2021/12/24 11:00:35;;;;;;;22.63;8.35;;;20.40;58.40;;;;;;4985849;28;86455;-78
2021/12/24 11:03:04;;;;;;;25.13;9.07;;;20.40;58.60;;;;;;4983995;28;86956;-78
2021/12/24 11:05:32;;;;;;;22.60;8.57;;;20.40;58.40;;;;;;4983888;28;86841;-78
2021/12/24 11:08:01;;;;;;;21.13;8.13;;;20.40;58.50;;;;;;4973910;28;86249;-78
2021/12/24 11:10:33;;;;;;;20.88;8.10;;;20.40;58.60;;;;;;4974207;28;86667;-76
2021/12/24 11:13:07;;;;;;;23.95;7.65;;;20.40;58.80;;;;;;4973542;28;85650;-78
2021/12/24 11:15:45;;;;;;;17.45;7.90;;;20.40;58.80;;;;;;4973050;28;86553;-77
2021/12/24 11:18:23;;;;;;;20.25;7.72;;;20.40;59.10;;;;;;4973246;28;86410;-77
2021/12/24 11:20:53;;;;;;;21.25;8.10;;;20.40;59.20;;;;;;4974014;28;86001;-78
2021/12/24 11:23:21;;;;;;;17.55;7.43;;;20.50;59.30;;;;;;4974475;28;86289;-78
2021/12/24 11:25:50;;;;;;;21.45;8.38;;;20.50;59.20;;;;;;4974176;28;86667;-78
2021/12/24 11:28:17;;;;;;;22.75;7.75;;;20.50;59.20;;;;;;4973441;28;86885;-77
2021/12/24 11:30:47;;;;;;;19.83;7.60;;;20.50;59.30;;;;;;4973492;28;86462;-77
2021/12/24 11:33:20;;;;;;;19.65;7.50;;;20.50;59.30;;;;;;4974576;28;85651;-76
2021/12/24 11:35:48;;;;;;;20.70;7.95;;;20.50;59.50;;;;;;4974450;28;86986;-77
2021/12/24 11:38:17;;;;;;;18.95;7.95;;;20.50;59.50;;;;;;4974279;28;86444;-76
2021/12/24 11:40:45;;;;;;;23.30;7.93;;;20.50;59.50;;;;;;4973849;28;86475;-78
2021/12/24 11:43:11;;;;;;;19.77;8.17;;;20.50;59.50;;;;;;4970798;28;86769;-77
2021/12/24 11:45:37;;;;;;;18.15;7.93;;;20.50;58.70;;;;;;4973091;28;86779;-79
2021/12/24 11:48:03;;;;;;;21.73;7.68;;;20.50;58.30;;;;;;4970580;28;87345;-75
2021/12/24 11:50:30;;;;;;;40.38;20.35;;;20.50;58.10;;;;;;4973215;28;86780;-77
2021/12/24 11:52:59;;;;;;;34.72;14.38;;;20.50;58.10;;;;;;4972804;28;86600;-77
2021/12/24 11:55:30;;;;;;;60.38;22.30;;;20.50;57.90;;;;;;4970235;28;90070;-77
2021/12/24 11:58:03;;;;;;;52.47;21.05;;;20.50;57.80;;;;;;4972236;28;85597;-77
2021/12/24 12:00:41;;;;;;;48.60;20.30;;;20.60;57.70;;;;;;4972606;28;86106;-79
2021/12/24 12:03:09;;;;;;;58.47;21.08;;;20.50;57.80;;;;;;4971591;28;86188;-77
2021/12/24 12:05:39;;;;;;;50.67;18.83;;;20.60;58.50;;;;;;4970200;28;88176;-76
2021/12/24 12:08:23;;;;;;;52.97;18.95;;;20.60;57.60;;;;;;4972153;28;86121;-78
2021/12/24 12:10:50;;;;;;;42.55;17.17;;;20.50;57.90;;;;;;4972030;28;86282;-76
2021/12/24 12:13:46;;;;;;;38.22;15.10;;;20.50;57.50;;;;;;4972155;28;86509;-77
2021/12/24 12:16:18;;;;;;;42.22;16.73;;;20.50;58.20;;;;;;4972009;28;87676;-77
2021/12/24 12:18:59;;;;;;;37.28;16.00;;;20.60;57.20;;;;;;4969819;28;86971;-77
2021/12/24 12:21:41;;;;;;;44.78;15.82;;;20.50;57.40;;;;;;4970966;28;86729;-77
2021/12/24 12:26:53;;;;;;;45.42;14.75;;;20.60;57.00;;;;;;4968134;28;86742;-78
2021/12/24 12:29:32;;;;;;;39.13;14.40;;;20.60;57.10;;;;;;4971276;28;87314;-75
2021/12/24 12:32:03;;;;;;;;;;;20.60;56.30;;;;;;4971632;28;86220;-75
2021/12/24 12:34:41;;;;;;;41.42;14.43;;;20.50;56.30;;;;;;4974008;28;86883;-73
2021/12/24 12:37:46;;;;;;;36.15;13.93;;;20.60;56.40;;;;;;4969148;28;87598;-76
2021/12/24 12:40:17;;;;;;;32.13;13.23;;;20.60;56.90;;;;;;4967481;28;86679;-75
2021/12/24 12:42:51;;;;;;;37.40;13.52;;;20.60;57.30;;;;;;4968759;28;86272;-75
2021/12/24 12:45:42;;;;;;;34.03;13.00;;;20.60;57.80;;;;;;4971667;28;86991;-75
2021/12/24 12:48:11;;;;;;;32.90;11.68;;;20.60;57.90;;;;;;4970204;28;87624;-74
2021/12/24 12:50:39;;;;;;;;;;;20.60;58.50;;;;;;4969643;28;86848;-75
2021/12/24 12:53:30;;;;;;;30.13;12.85;;;20.60;58.80;;;;;;4971447;28;86100;-76
2021/12/24 12:56:34;;;;;;;27.20;11.73;;;20.60;58.70;;;;;;4968956;28;86767;-74
2021/12/24 12:59:03;;;;;;;31.63;12.38;;;20.60;59.70;;;;;;4971158;28;86205;-76
2021/12/24 13:01:29;;;;;;;29.97;10.47;;;20.60;59.20;;;;;;4969998;28;86246;-75
2021/12/24 13:03:55;;;;;;;29.92;11.68;;;20.60;59.20;;;;;;4971001;28;85758;-76
2021/12/24 13:06:21;;;;;;;29.10;11.38;;;20.60;59.20;;;;;;4970363;28;85874;-74
2021/12/24 13:08:48;;;;;;;34.38;12.38;;;20.60;59.20;;;;;;4970987;28;86103;-75
2021/12/24 13:11:16;;;;;;;26.15;10.35;;;20.60;59.20;;;;;;4971012;28;86202;-76
2021/12/24 13:13:57;;;;;;;32.13;11.10;;;20.60;59.00;;;;;;4970780;28;86512;-76
2021/12/24 13:16:50;;;;;;;33.38;11.68;;;20.70;59.00;;;;;;4969274;28;86210;-74
2021/12/24 13:24:38;;;;;;;34.42;11.60;;;20.60;59.20;;;;;;4971099;28;86626;-74
2021/12/24 13:27:04;;;;;;;23.73;10.48;;;20.60;60.00;;;;;;4970444;28;87493;-73
2021/12/24 13:29:30;;;;;;;28.45;11.15;;;20.70;59.60;;;;;;4970524;28;86477;-75
2021/12/24 13:31:57;;;;;;;29.70;11.38;;;20.60;59.60;;;;;;4969617;28;89099;-75
2021/12/24 13:34:24;;;;;;;26.80;11.93;;;20.60;59.60;;;;;;4970146;28;86119;-74
2021/12/24 13:36:50;;;;;;;23.95;10.93;;;20.60;59.90;;;;;;4968703;28;86634;-75
2021/12/24 13:39:34;;;;;;;;;;;;;;;;;;;;;
2021/12/24 13:42:09;;;;;;;24.35;10.80;;;20.60;60.70;;;;;;4962650;28;86479;-76
2021/12/24 13:44:38;;;;;;;26.02;11.32;;;20.60;60.20;;;;;;4974119;28;85544;-76
2021/12/24 13:47:29;;;;;;;33.70;12.00;;;20.70;60.20;;;;;;4971510;28;86591;-74
2021/12/24 13:55:36;;;;;;;27.63;10.80;;;20.70;61.00;;;;;;4972892;28;85948;-75
2021/12/24 13:58:07;;;;;;;27.55;9.90;;;20.70;60.70;;;;;;4962580;28;87879;-75
2021/12/24 14:00:58;;;;;;;23.02;9.93;;;20.70;60.40;;;;;;4972600;28;87231;-77
2021/12/24 14:03:29;;;;;;;30.90;10.93;;;20.70;60.60;;;;;;4972089;28;86554;-76
2021/12/24 14:06:00;;;;;;;24.10;9.65;;;20.70;60.70;;;;;;4969395;28;87141;-74
2021/12/24 14:08:39;;;;;;;22.83;10.73;;;20.70;60.80;;;;;;4969486;28;87389;-76
2021/12/24 14:11:24;;;;;;;22.50;9.75;;;20.80;60.70;;;;;;4971411;28;86533;-76
2021/12/24 14:14:04;;;;;;;28.80;9.98;;;20.70;60.40;;;;;;5003689;28;88826;-76
2021/12/24 14:20:01;;;;;;;23.55;10.80;;;20.70;60.40;;;;;;4970267;28;85762;-73
2021/12/24 14:23:12;;;;;;;21.75;10.35;;;20.70;60.70;;;;;;4968349;28;86726;-74
2021/12/24 14:26:28;;;;;;;23.20;10.00;;;20.70;60.50;;;;;;4953420;28;86549;-75
2021/12/24 14:28:55;;;;;;;20.55;9.50;;;20.70;61.10;;;;;;4965029;28;86658;-75
2021/12/24 14:31:59;;;;;;;24.92;10.25;;;20.70;60.80;;;;;;4971192;28;86381;-75
2021/12/24 14:34:44;;;;;;;23.15;9.88;;;20.70;60.60;;;;;;4968459;28;87424;-75
2021/12/24 14:37:28;;;;;;;21.48;9.15;;;20.70;60.50;;;;;;4970915;28;85590;-75
2021/12/24 14:40:17;;;;;;;23.77;9.27;;;20.70;60.70;;;;;;4968645;28;86845;-76
2021/12/24 14:42:47;;;;;;;21.30;9.15;;;20.70;60.70;;;;;;4970700;28;85857;-74
2021/12/24 14:45:24;;;;;;;19.42;9.50;;;20.70;60.80;;;;;;4971253;28;87160;-80
2021/12/24 14:48:16;;;;;;;21.35;9.82;;;20.70;61.00;;;;;;4971715;28;86241;-80
2021/12/24 14:50:48;;;;;;;24.92;9.15;;;20.70;61.10;;;;;;4968598;28;86048;-77
2021/12/24 14:53:17;;;;;;;21.33;8.40;;;20.70;61.20;;;;;;4971240;28;86221;-79
2021/12/24 14:55:45;;;;;;;20.90;8.63;;;20.70;61.00;;;;;;5003193;28;90013;-80
2021/12/24 14:58:12;;;;;;;17.17;8.70;;;20.70;60.80;;;;;;4971261;28;88481;-80
2021/12/24 15:00:42;;;;;;;18.90;8.40;;;20.70;61.00;;;;;;4974549;28;86214;-82
2021/12/24 15:03:15;;;;;;;21.58;9.07;;;20.70;61.00;;;;;;4972630;28;85642;-81
2021/12/24 15:05:50;;;;;;;20.20;8.10;;;20.80;61.20;;;;;;4969594;28;90333;-77
2021/12/24 15:08:27;;;;;;;21.45;8.68;;;20.80;61.10;;;;;;5003733;28;89149;-81
2021/12/24 15:10:59;;;;;;;16.33;7.68;;;20.80;61.30;;;;;;4968912;28;87414;-82
2021/12/24 15:13:27;;;;;;;17.95;8.18;;;20.80;61.30;;;;;;4966088;28;87323;-80
2021/12/24 15:15:58;;;;;;;20.88;8.65;;;20.80;61.10;;;;;;4971025;28;86526;-76